• Join FlightAware (Why Join?)
  • Login
  • US Flag 
04:36PM EST


 

Airport Tracker/Info


-or-


 

Live Flight TrackerFlight Track Log ✈ CPZ5714 ✈ 21-Aug-2013 ✈ KMSP - KALB

Flight Track Log - Related Links

Times and Time Zones

All times are in EDT time to prevent confusion due to time zone crossing. See the CPZ5714 flight status page for this flight to view local times or setup timezone preferences in your user account.

Time Position Orientation Groundspeed Altitude Reporting Facility
EDT Latitude Longitude Course Direction KTS MPH feet Rate Location/Type
08:49PM 44.9333 -93.2333 93° East 168 193 2,500  Level Minneapolis TRACON
08:51PM 44.9978 -93.2042 18° North 235 270 4,700 1,812 Climbing Minneapolis Center
08:52PM 44.8654 -92.5681 113° Southeast  Level Estimated
08:52PM 45.0522 -93.1311 43° Northeast 271 312 7,000  Level Minneapolis Center
08:53PM 44.8607 -92.4047 125° Southeast  Level Estimated
08:53PM 45.0794 -93.0125 72° East 302 348 10,100  Level Minneapolis Center
08:54PM 44.8558 -92.2413 117° Southeast  Level Estimated
08:54PM 45.0192 -92.9186 132° Southeast 318 366 12,300  Level Minneapolis Center
08:55PM 44.8507 -92.0803 93° East  Level Estimated
08:55PM 44.9547 -92.8031 128° Southeast 377 434 13,500  Level Minneapolis Center
08:56PM 44.8972 -92.6719 122° Southeast 391 450 15,500 1,887 Climbing Minneapolis Center
08:57PM 44.8367 -92.5358 122° Southeast 407 468 17,400 1,839 Climbing Minneapolis Center
08:58PM 44.7742 -92.3983 123° Southeast 414 476 19,300 1,694 Climbing Minneapolis Center
08:59PM 44.7111 -92.2578 122° Southeast 420 483 20,900 1,694 Climbing Minneapolis Center
09:00PM 44.6328 -92.0825 122° Southeast 436 502 22,800 1,645 Climbing Minneapolis Center
09:01PM 44.5672 -91.9353 122° Southeast 443 510 24,300 1,258 Climbing Minneapolis Center
09:02PM 44.4992 -91.7847 122° Southeast 453 521 25,400 968 Climbing Minneapolis Center
09:03PM 44.4294 -91.6306 122° Southeast 465 535 26,300 919 Climbing Minneapolis Center
09:04PM 44.3572 -91.4742 123° Southeast 473 544 27,300 968 Climbing Minneapolis Center
09:05PM 44.2853 -91.3150 122° Southeast 482 555 28,300 968 Climbing Minneapolis Center
09:06PM 44.2078 -91.1497 123° Southeast 490 564 29,300 1,161 Climbing Minneapolis Center
09:07PM 44.1353 -90.9903 122° Southeast 491 565 30,700 1,355 Climbing Minneapolis Center
09:08PM 44.0489 -90.8069 123° Southeast 478 550 32,100 1,210 Climbing Minneapolis Center
09:09PM 43.9789 -90.6597 123° Southeast 463 533 33,200 768 Climbing Minneapolis Center
09:10PM 43.9092 -90.5094 123° Southeast 462 532 33,700 474 Climbing Minneapolis Center
09:11PM 43.8508 -90.3894 124° Southeast 473 544 34,100 531 Climbing Chicago Center
09:12PM 43.7636 -90.2033 123° Southeast 476 548 34,700 432 Climbing Chicago Center
09:13PM 43.6889 -90.0497 124° Southeast 480 552 35,000 144 Climbing Chicago Center
09:14PM 43.6225 -89.8897 120° Southeast 485 558 35,000  Level Chicago Center
09:15PM 43.6097 -89.7094 96° East 473 544 35,000  Level Chicago Center
09:16PM 43.5575 -89.5439 113° Southeast 476 548 35,000  Level Chicago Center
09:17PM 43.4919 -89.3542 115° Southeast 472 543 35,000  Level Chicago Center
09:19PM 43.4353 -89.1919 116° Southeast 472 543 35,000  Level Chicago Center
09:20PM 43.3792 -89.0294 115° Southeast 472 543 35,000  Level Chicago Center
09:21PM 43.3219 -88.8672 116° Southeast 474 545 35,000  Level Chicago Center
09:22PM 43.2664 -88.7025 115° Southeast 480 552 35,000  Level Chicago Center
09:23PM 43.2061 -88.5042 113° Southeast 489 563 35,000  Level Chicago Center
09:24PM 43.1611 -88.3319 110° East 488 562 35,000  Level Chicago Center
09:25PM 43.1358 -88.1572 101° East 473 544 35,000  Level Chicago Center
09:26PM 43.1103 -87.9833 101° East 468 539 35,000  Level Chicago Center
09:27PM 43.0206 -87.8183 127° Southeast 477 549 35,000  Level Chicago Center
09:28PM 42.8978 -87.7383 154° Southeast 486 559 35,000  Level Chicago Center
09:29PM 42.7750 -87.6656 156° South 480 552 35,000  Level Chicago Center
09:30PM 42.6550 -87.5922 156° South 476 548 35,000  Level Chicago Center
09:31PM 42.5756 -87.4403 125° Southeast 468 539 35,000  Level Chicago Center
09:32PM 42.5114 -87.2889 120° Southeast 465 535 35,000  Level Chicago Center
09:33PM 42.4497 -87.1350 118° Southeast 466 536 35,000  Level Chicago Center
09:34PM 42.4361 -86.9642 96° East 460 529 35,000  Level Chicago Center
09:35PM 42.4778 -86.7725 74° East 446 513 35,000  Level Chicago Center
09:36PM 42.5078 -86.6319 74° East 446 513 35,000  Level Chicago Center
09:37PM 42.5486 -86.4386 74° East 446 513 35,000  Level Chicago Center
09:38PM 42.5806 -86.2808 75° East 442 509 35,000  Level Chicago Center
09:39PM 42.6139 -86.1214 74° East 442 509 35,000  Level Chicago Center
09:40PM 42.6458 -85.9608 75° East 445 512 35,000  Level Chicago Center
09:41PM 42.6786 -85.8008 74° East 446 513 35,000  Level Chicago Center
09:42PM 42.7175 -85.6081 75° East 445 512 35,000  Level Chicago Center
09:43PM 42.7494 -85.4478 75° East 445 512 35,000  Level Chicago Center
09:44PM 42.7819 -85.2867 75° East 444 511 35,000  Level Chicago Center
09:45PM 42.8131 -85.1256 75° East 445 512 35,000  Level Chicago Center
09:46PM 42.8453 -84.9631 75° East 445 512 35,000  Level Chicago Center
09:47PM 42.8831 -84.7700 75° East 443 510 35,000  Level Chicago Center
09:48PM 42.9136 -84.6072 76° East 444 511 35,000  Level Chicago Center
09:50PM 42.9444 -84.4442 75° East 445 512 35,000  Level Chicago Center
09:50PM 42.9642 -84.3286 77° East 439 505 35,000  Level Cleveland Center
09:51PM 42.9964 -84.1686 75° East 434 499 35,000  Level Cleveland Center
09:52PM 43.0264 -84.0028 76° East 434 499 35,000  Level Cleveland Center
09:53PM 43.0561 -83.8425 76° East 434 499 35,000  Level Cleveland Center
09:54PM 43.0856 -83.6789 76° East 434 499 35,000  Level Cleveland Center
09:55PM 43.1122 -83.5353 76° East 429 494 35,000  Level Cleveland Center
09:56PM 43.1392 -83.3744 77° East 429 494 35,000  Level Cleveland Center
09:57PM 43.1703 -83.2078 76° East 429 494 35,000  Level Cleveland Center
09:58PM 43.1967 -83.0464 77° East 429 494 35,000  Level Cleveland Center
09:59PM 43.2269 -82.8911 75° East 429 494 35,000  Level Cleveland Center
10:00PM 43.2489 -82.7294 79° East 429 494 35,000  Level Cleveland Center
10:01PM 43.2372 -82.5608 95° East 429 494 35,000  Level Cleveland Center
10:02PM 43.2339 -82.3925 91° East 434 499 35,000  Level Cleveland Center
10:03PM 43.2281 -82.2214 93° East 440 506 35,000  Level Cleveland Center
10:04PM 43.2167 -82.0833 96° East 450 518 35,000  Level Toronto Center
10:05PM 43.2167 -81.9000 90° East 440 506 35,000  Level Toronto Center
10:06PM 43.2167 -81.7333 90° East 440 506 35,000  Level Toronto Center
10:07PM 43.2000 -81.5500 97° East 440 506 35,000  Level Toronto Center
10:08PM 43.2000 -81.4000 90° East 440 506 35,000  Level Toronto Center
10:09PM 43.1833 -81.2333 98° East 440 506 35,000  Level Toronto Center
10:10PM 43.1833 -81.0500 90° East 440 506 35,000  Level Toronto Center
10:11PM 43.1833 -80.8833 90° East 440 506 35,000  Level Toronto Center
10:12PM 43.1833 -80.7333 90° East 440 506 35,000  Level Toronto Center
10:13PM 43.1833 -80.5667 90° East 440 506 35,000  Level Toronto Center
10:14PM 43.1667 -80.4167 99° East 440 506 35,000  Level Toronto Center
10:15PM 43.1667 -80.2333 90° East 440 506 35,000  Level Toronto Center
10:16PM 43.1500 -80.0667 98° East 440 506 35,000  Level Toronto Center
10:17PM 43.1500 -79.8833 90° East 440 506 35,000 -400 Level Toronto Center
10:18PM 43.1500 -79.7167 90° East 450 518 34,200 -900 Descending Toronto Center
10:19PM 43.1333 -79.5500 98° East 460 529 33,200 -1,000 Descending Toronto Center
10:20PM 43.1333 -79.3667 90° East 470 541 32,200 -1,000 Descending Toronto Center
10:21PM 43.1167 -79.2000 98° East 480 552 31,200 -600 Descending Toronto Center
10:22PM 43.1167 -79.0000 90° East 480 552 31,000 -100 Descending Toronto Center
10:23PM 43.1000 -78.8167 97° East 480 552 31,000  Level Toronto Center
10:24PM 43.1028 -78.6553 89° East 478 550 31,000  Level Cleveland Center
10:25PM 43.0933 -78.4736 94° East 478 550 31,000  Level Cleveland Center
10:26PM 43.0836 -78.2922 94° East 478 550 31,000  Level Cleveland Center
10:27PM 43.0717 -78.1164 95° East 478 550 31,000 -350 Level Cleveland Center
10:28PM 43.0614 -77.9347 94° East 478 550 30,300 -700 Descending Cleveland Center
10:29PM 43.0539 -77.7903 94° East 478 550 29,600 -650 Descending Cleveland Center
10:30PM 43.0428 -77.5947 94° East 478 550 29,000 -213 Descending Cleveland Center
10:32PM 43.0228 -77.2806 95° East 472 543 29,000  Level Boston Center
10:33PM 43.0117 -77.1006 95° East 472 543 29,000  Level Boston Center
10:34PM 42.9997 -76.9292 95° East 466 536 29,000  Level Boston Center
10:35PM 42.9878 -76.7494 95° East 466 536 29,000  Level Boston Center
10:36PM 42.9756 -76.5753 95° East 466 536 29,000  Level Boston Center
10:37PM 42.9631 -76.3986 95° East 466 536 29,000  Level Boston Center
10:38PM 42.9503 -76.2217 96° East 466 536 29,000  Level Boston Center
10:39PM 42.9375 -76.0422 95° East 466 536 29,000 -300 Level Boston Center
10:40PM 42.9219 -75.8656 97° East 466 536 28,400 -787 Descending Boston Center
10:41PM 42.9103 -75.7003 95° East 459 528 27,400 -1,450 Descending Boston Center
10:42PM 42.8944 -75.5153 97° East 444 511 25,500 -2,033 Descending Boston Center
10:43PM 42.8822 -75.3531 96° East 444 511 23,300 -2,218 Descending Boston Center
10:44PM 42.8714 -75.1967 95° East 439 505 21,100 -2,150 Descending Boston Center
10:45PM 42.8583 -75.0489 97° East 416 479 19,000 -2,066 Descending Boston Center
10:46PM 42.8469 -74.9039 96° East 396 456 16,900 -2,106 Descending Boston Center
10:46PM 42.8361 -74.8158 99° East 381 438 15,700 -1,969 Descending Boston Center
10:47PM 42.8333 -74.7506 93° East 375 432 14,800 -1,835 Descending Boston Center
10:48PM 42.8211 -74.6311 98° East 380 437 13,100 -1,930 Descending Boston Center
10:49PM 42.8072 -74.4806 97° East 374 430 11,100 -1,400 Descending Boston Center
10:50PM 42.8028 -74.3728 93° East 338 389 10,300 -1,339 Descending Boston Center
10:51PM 42.8069 -74.2456 87° East 304 350 8,400 -1,916 Descending Boston Center
10:52PM 42.8128 -74.1439 85° East 299 344 6,500 -1,969 Descending Boston Center
10:53PM 42.8189 -74.0111 86° East 287 330 4,200 -1,835 Descending Boston Center
10:54PM 42.8264 -73.9178 84° East 282 325 2,800 -750 Descending Boston Center
10:55PM 42.8297 -73.8244 87° East 282 325 2,800 -919 Level Boston Center
10:56PM 42.7861 -73.8094 166° South 129 148 900 -1,810 Descending Boston Center